createdAt,value
2023-01-02T00:00:40.438Z,17.35
2023-01-02T00:01:43.592Z,17.00
2023-01-02T00:02:46.498Z,15.43
2023-01-02T00:03:49.510Z,17.08
2023-01-02T00:04:52.296Z,16.87
2023-01-02T00:05:55.105Z,17.65
2023-01-02T00:06:58.756Z,16.75
2023-01-02T00:08:01.735Z,17.87
2023-01-02T00:09:06.212Z,17.55
2023-01-02T00:10:08.999Z,17.62
2023-01-02T00:11:11.978Z,18.58
2023-01-02T00:12:14.735Z,17.60
2023-01-02T00:13:17.805Z,18.02
2023-01-02T00:14:20.575Z,20.45
2023-01-02T00:15:23.624Z,18.05
2023-01-02T00:16:27.038Z,18.65
2023-01-02T00:17:29.894Z,17.62
2023-01-02T00:18:34.193Z,18.30
2023-01-02T00:19:36.983Z,19.12
2023-01-02T00:20:39.884Z,18.02
2023-01-02T00:21:42.743Z,17.92
2023-01-02T00:22:45.651Z,18.00
2023-01-02T00:23:48.410Z,18.15
2023-01-02T00:24:51.201Z,18.33
2023-01-02T00:25:54.008Z,18.35
2023-01-02T00:26:56.990Z,18.50
2023-01-02T00:27:59.927Z,19.17
2023-01-02T00:29:02.838Z,18.12
2023-01-02T00:30:06.331Z,19.25
2023-01-02T00:31:11.782Z,19.17
2023-01-02T00:32:15.217Z,19.52
2023-01-02T00:33:18.236Z,20.80
2023-01-02T00:34:21.116Z,20.20
2023-01-02T00:35:23.998Z,19.60
2023-01-02T00:36:27.982Z,19.62
2023-01-02T00:37:31.003Z,20.12
2023-01-02T00:38:37.980Z,19.95
2023-01-02T00:39:41.363Z,20.60
2023-01-02T00:40:44.416Z,22.08
2023-01-02T00:41:47.302Z,20.45
2023-01-02T00:42:50.184Z,21.08
2023-01-02T00:43:52.857Z,21.73
2023-01-02T00:44:55.804Z,21.33
2023-01-02T00:45:58.668Z,20.12
2023-01-02T00:47:01.880Z,20.65
2023-01-02T00:48:04.692Z,22.42
2023-01-02T00:49:07.723Z,20.45
2023-01-02T00:50:10.556Z,20.27
2023-01-02T00:51:13.411Z,22.13
2023-01-02T00:52:16.159Z,21.95
2023-01-02T00:53:19.399Z,21.80
2023-01-02T00:54:22.137Z,22.00
2023-01-02T00:55:25.301Z,21.50
2023-01-02T00:56:27.982Z,20.98
2023-01-02T00:57:30.866Z,21.15
2023-01-02T00:58:33.993Z,22.02
2023-01-02T00:59:36.747Z,19.87
2023-01-02T01:00:39.897Z,20.17
2023-01-02T01:01:43.051Z,21.30
2023-01-02T01:02:46.015Z,20.85
2023-01-02T01:03:49.312Z,20.37
2023-01-02T01:04:52.152Z,21.12
2023-01-02T01:05:54.877Z,20.98
2023-01-02T01:06:57.857Z,20.92
2023-01-02T01:08:00.825Z,20.52
2023-01-02T01:09:03.756Z,20.33
2023-01-02T01:10:07.404Z,20.73
2023-01-02T01:11:16.347Z,21.15
2023-01-02T01:12:19.152Z,20.48
2023-01-02T01:13:22.173Z,20.35
2023-01-02T01:14:25.128Z,19.33
2023-01-02T01:15:28.137Z,19.98
2023-01-02T01:16:31.160Z,19.62
2023-01-02T01:17:34.259Z,20.20
2023-01-02T01:18:38.171Z,18.48
2023-01-02T01:19:41.009Z,18.55
2023-01-02T01:20:43.742Z,19.85
2023-01-02T01:21:46.505Z,20.00
2023-01-02T01:22:49.384Z,19.45
2023-01-02T01:23:56.178Z,18.12
2023-01-02T01:24:59.126Z,18.83
2023-01-02T01:26:07.872Z,18.90
2023-01-02T01:27:10.785Z,18.15
2023-01-02T01:28:13.660Z,18.45
2023-01-02T01:29:16.527Z,17.98
2023-01-02T01:30:19.391Z,18.95
2023-01-02T01:31:23.469Z,18.70
2023-01-02T01:32:26.285Z,17.95
2023-01-02T01:33:31.193Z,19.15
2023-01-02T01:34:34.277Z,18.15
2023-01-02T01:35:37.116Z,17.25
2023-01-02T01:36:40.117Z,18.23
2023-01-02T01:37:42.772Z,17.10
2023-01-02T01:38:46.785Z,17.83
2023-01-02T01:39:53.945Z,17.85
2023-01-02T01:40:59.464Z,17.17
2023-01-02T01:42:02.697Z,17.90
2023-01-02T01:43:13.700Z,17.87
2023-01-02T01:45:04.816Z,18.20
2023-01-02T01:46:15.771Z,17.02
2023-01-02T01:47:40.434Z,17.00
2023-01-02T01:48:48.614Z,17.37
2023-01-02T01:50:04.707Z,17.02
2023-01-02T01:51:08.902Z,16.70
2023-01-02T01:52:16.291Z,17.55
2023-01-02T01:53:22.202Z,17.92
2023-01-02T01:54:31.457Z,17.08
2023-01-02T01:55:39.419Z,17.05
2023-01-02T01:56:51.019Z,17.37
2023-01-02T01:57:59.625Z,19.15
2023-01-02T01:59:03.526Z,18.10
2023-01-02T02:00:06.905Z,18.33
2023-01-02T02:01:15.268Z,18.87
2023-01-02T02:02:18.640Z,18.35
2023-01-02T02:03:27.021Z,18.58
2023-01-02T02:04:29.904Z,18.58
2023-01-02T02:05:33.943Z,18.08
2023-01-02T02:06:37.296Z,18.25
2023-01-02T02:07:47.025Z,17.33
2023-01-02T02:09:02.725Z,18.23
2023-01-02T02:10:10.238Z,17.17
2023-01-02T02:11:14.335Z,18.45
2023-01-02T02:12:20.650Z,18.15
2023-01-02T02:13:26.163Z,16.40
2023-01-02T02:14:28.908Z,16.95
2023-01-02T02:15:44.019Z,16.95
2023-01-02T02:17:04.577Z,16.37
2023-01-02T02:18:52.375Z,16.65
2023-01-02T02:20:26.616Z,16.45
2023-01-02T02:22:07.172Z,17.00
2023-01-02T02:23:25.483Z,15.20
2023-01-02T02:25:10.031Z,16.15
2023-01-02T02:26:19.140Z,15.90
2023-01-02T02:27:27.860Z,17.05
2023-01-02T02:28:42.081Z,15.60
2023-01-02T02:30:00.016Z,16.67
2023-01-02T02:31:20.809Z,16.67
2023-01-02T02:32:56.728Z,16.50
2023-01-02T02:34:19.629Z,17.40
2023-01-02T02:35:49.415Z,17.27
2023-01-02T02:37:29.145Z,17.15
2023-01-02T02:38:42.010Z,16.48
2023-01-02T02:40:08.526Z,15.02
2023-01-02T02:41:33.601Z,15.70
2023-01-02T02:43:01.340Z,16.48
2023-01-02T02:44:25.956Z,16.33
2023-01-02T02:45:55.281Z,16.08
2023-01-02T02:47:49.563Z,16.83
2023-01-02T02:49:08.358Z,15.77
2023-01-02T02:50:20.219Z,16.48
2023-01-02T02:51:43.692Z,16.40
2023-01-02T02:53:02.688Z,17.05
2023-01-02T02:54:13.317Z,17.65
2023-01-02T02:55:24.936Z,15.32
2023-01-02T02:57:32.706Z,16.65
2023-01-02T02:58:37.687Z,18.85
2023-01-02T02:59:42.472Z,18.30
2023-01-02T03:00:45.572Z,17.17
2023-01-02T03:01:48.589Z,17.55
2023-01-02T03:02:51.577Z,17.50
2023-01-02T03:03:54.459Z,17.80
2023-01-02T03:05:03.339Z,17.40
2023-01-02T03:06:18.270Z,18.95
2023-01-02T03:07:24.502Z,18.17
2023-01-02T03:08:36.910Z,18.17
2023-01-02T03:09:55.121Z,16.73
2023-01-02T03:11:02.856Z,17.55
2023-01-02T03:12:25.367Z,17.52
2023-01-02T03:13:49.806Z,17.90
2023-01-02T03:15:14.736Z,17.92
2023-01-02T03:16:28.379Z,17.87
2023-01-02T03:18:05.919Z,18.12
2023-01-02T03:19:44.439Z,17.33
2023-01-02T03:21:03.329Z,17.58
2023-01-02T03:22:33.909Z,17.00
2023-01-02T03:23:44.966Z,19.10
2023-01-02T03:24:51.098Z,19.37
2023-01-02T03:25:55.214Z,18.27
2023-01-02T03:27:05.285Z,18.85
2023-01-02T03:28:10.676Z,18.60
2023-01-02T03:29:18.533Z,19.45
2023-01-02T03:30:22.897Z,18.58
2023-01-02T03:31:28.812Z,18.52
2023-01-02T03:32:38.216Z,18.75
2023-01-02T03:33:46.057Z,18.65
2023-01-02T03:34:50.856Z,19.67
2023-01-02T03:35:59.172Z,18.83
2023-01-02T03:37:07.370Z,18.58
2023-01-02T03:38:20.676Z,20.12
2023-01-02T03:39:31.832Z,20.20
2023-01-02T03:40:41.279Z,20.52
2023-01-02T03:41:58.356Z,19.23
2023-01-02T03:43:11.160Z,18.65
2023-01-02T03:44:17.358Z,17.75
2023-01-02T03:45:28.733Z,19.98
2023-01-02T03:47:50.386Z,18.67
2023-01-02T03:49:02.622Z,18.50
2023-01-02T03:50:12.723Z,20.40
2023-01-02T03:51:15.934Z,19.92
2023-01-02T03:52:25.658Z,20.35
2023-01-02T03:53:30.350Z,20.10
2023-01-02T03:54:33.463Z,19.25
2023-01-02T03:55:39.609Z,20.25
2023-01-02T03:56:57.949Z,18.92
2023-01-02T03:58:06.569Z,18.40
2023-01-02T03:59:18.114Z,18.48
2023-01-02T04:00:22.196Z,18.48
2023-01-02T04:01:40.419Z,19.10
2023-01-02T04:02:54.039Z,18.33
2023-01-02T04:04:04.589Z,18.62
2023-01-02T04:05:16.054Z,18.62
2023-01-02T04:06:24.026Z,18.35
2023-01-02T04:07:57.232Z,17.35
2023-01-02T04:09:07.367Z,17.95
2023-01-02T04:10:13.340Z,17.77
2023-01-02T04:11:20.787Z,17.15
2023-01-02T04:12:25.691Z,17.53
2023-01-02T04:13:49.193Z,19.08
2023-01-02T04:14:59.455Z,19.02
2023-01-02T04:16:04.995Z,17.67
2023-01-02T04:17:08.857Z,17.92
2023-01-02T04:18:46.213Z,18.48
2023-01-02T04:20:01.300Z,17.12
2023-01-02T04:21:11.883Z,17.35
2023-01-02T04:22:20.980Z,17.52
2023-01-02T04:23:39.504Z,18.40
2023-01-02T04:24:47.812Z,17.80
2023-01-02T04:26:07.571Z,18.17
2023-01-02T04:27:20.752Z,16.85
2023-01-02T04:28:28.710Z,18.58
2023-01-02T04:29:32.307Z,19.75
2023-01-02T04:30:43.246Z,16.85
2023-01-02T04:32:19.458Z,16.92
2023-01-02T04:33:25.267Z,18.55
2023-01-02T04:34:31.811Z,17.30
2023-01-02T04:35:35.339Z,19.05
2023-01-02T04:36:39.938Z,16.45
2023-01-02T04:37:43.883Z,17.33
2023-01-02T04:38:49.122Z,18.55
2023-01-02T04:39:53.650Z,18.67
2023-01-02T04:41:02.856Z,18.92
2023-01-02T04:42:05.766Z,18.70
2023-01-02T04:43:18.786Z,18.15
2023-01-02T04:44:21.641Z,18.70
2023-01-02T04:45:24.442Z,18.52
2023-01-02T04:46:29.467Z,17.60
2023-01-02T04:47:32.732Z,18.65
2023-01-02T04:48:38.611Z,18.58
2023-01-02T04:49:42.013Z,17.62
2023-01-02T04:50:45.321Z,18.65
2023-01-02T04:51:48.140Z,18.12
2023-01-02T04:52:51.080Z,18.02
2023-01-02T04:53:54.727Z,18.50
2023-01-02T04:54:57.428Z,18.12
2023-01-02T04:56:00.444Z,17.23
2023-01-02T04:57:03.410Z,18.00
2023-01-02T04:58:06.787Z,18.90
2023-01-02T04:59:09.877Z,19.25
2023-01-02T05:00:13.171Z,17.95
2023-01-02T05:01:18.739Z,18.15
2023-01-02T05:02:21.664Z,18.67
2023-01-02T05:03:24.579Z,17.52
2023-01-02T05:04:27.473Z,18.25
2023-01-02T05:05:31.232Z,17.42
2023-01-02T05:06:34.093Z,17.83
2023-01-02T05:07:37.951Z,17.50
2023-01-02T05:08:41.322Z,15.90
2023-01-02T05:09:44.164Z,17.65
2023-01-02T05:10:47.073Z,17.00
2023-01-02T05:11:50.695Z,16.85
2023-01-02T05:12:53.511Z,17.30
2023-01-02T05:13:56.429Z,17.87
2023-01-02T05:14:59.215Z,17.45
2023-01-02T05:16:02.226Z,16.98
2023-01-02T05:17:05.089Z,17.50
2023-01-02T05:18:08.748Z,16.52
2023-01-02T05:19:12.763Z,17.30
2023-01-02T05:20:15.994Z,16.80
2023-01-02T05:21:37.969Z,16.98
2023-01-02T05:23:01.538Z,17.65
2023-01-02T05:24:04.874Z,17.48
2023-01-02T05:25:09.537Z,16.85
2023-01-02T05:26:13.287Z,16.60
2023-01-02T05:27:16.291Z,17.02
2023-01-02T05:28:21.563Z,16.40
2023-01-02T05:29:24.479Z,17.17
2023-01-02T05:30:27.441Z,15.82
2023-01-02T05:31:31.043Z,16.73
2023-01-02T05:32:34.137Z,16.85
2023-01-02T05:33:37.058Z,17.00
2023-01-02T05:34:39.912Z,17.15
2023-01-02T05:35:42.942Z,15.93
2023-01-02T05:36:45.940Z,15.18
2023-01-02T05:37:48.699Z,17.25
2023-01-02T05:38:52.896Z,16.73
2023-01-02T05:39:55.901Z,17.00
2023-01-02T05:41:06.919Z,16.77
2023-01-02T05:42:09.692Z,14.95
2023-01-02T05:43:12.601Z,15.00
2023-01-02T05:44:15.425Z,15.52
2023-01-02T05:45:18.266Z,15.05
2023-01-02T05:46:21.487Z,15.88
2023-01-02T05:47:24.596Z,15.95
2023-01-02T05:48:28.644Z,15.18
2023-01-02T05:49:31.802Z,14.87
2023-01-02T05:50:34.965Z,15.30
2023-01-02T05:51:38.530Z,16.48
2023-01-02T05:52:45.556Z,14.93
2023-01-02T05:53:48.941Z,16.10
2023-01-02T05:54:51.792Z,14.87
2023-01-02T05:55:54.528Z,16.37
2023-01-02T05:56:57.430Z,15.48
2023-01-02T05:58:02.517Z,16.90
2023-01-02T05:59:08.534Z,16.10
2023-01-02T06:00:12.006Z,15.55
2023-01-02T06:01:16.380Z,15.57
2023-01-02T06:02:19.370Z,14.55
2023-01-02T06:03:22.364Z,15.50
2023-01-02T06:04:25.350Z,14.90
2023-01-02T06:05:28.055Z,15.65
2023-01-02T06:06:34.493Z,15.02
2023-01-02T06:07:37.425Z,14.52
2023-01-02T06:08:41.181Z,15.25
2023-01-02T06:09:44.075Z,14.45
2023-01-02T06:10:53.125Z,15.65
2023-01-02T06:11:56.584Z,14.02
2023-01-02T06:12:59.350Z,13.60
2023-01-02T06:14:02.193Z,14.90
2023-01-02T06:15:05.220Z,13.50
2023-01-02T06:16:10.154Z,14.45
2023-01-02T06:17:13.273Z,13.32
2023-01-02T06:18:16.123Z,15.18
2023-01-02T06:19:18.929Z,13.68
2023-01-02T06:20:21.846Z,13.10
2023-01-02T06:21:24.960Z,13.77
2023-01-02T06:22:27.972Z,13.40
2023-01-02T06:23:31.310Z,12.43
2023-01-02T06:24:34.121Z,12.85
2023-01-02T06:25:36.987Z,12.48
2023-01-02T06:26:39.891Z,13.35
2023-01-02T06:27:42.657Z,13.05
2023-01-02T06:28:54.706Z,13.62
2023-01-02T06:29:57.526Z,12.40
2023-01-02T06:31:13.528Z,12.77
2023-01-02T06:32:16.419Z,13.40
2023-01-02T06:33:19.178Z,12.68
2023-01-02T06:34:24.775Z,13.00
2023-01-02T06:35:27.721Z,13.65
2023-01-02T06:36:32.666Z,12.35
2023-01-02T06:37:35.513Z,12.90
2023-01-02T06:38:39.050Z,12.45
2023-01-02T06:39:42.025Z,11.95
2023-01-02T06:40:55.796Z,11.90
2023-01-02T06:41:58.677Z,12.60
2023-01-02T06:43:01.459Z,11.60
2023-01-02T06:44:04.262Z,12.43
2023-01-02T06:45:07.693Z,11.70
2023-01-02T06:46:12.070Z,11.55
2023-01-02T06:47:15.153Z,12.82
2023-01-02T06:48:19.988Z,13.32
2023-01-02T06:49:22.742Z,12.35
2023-01-02T06:50:32.812Z,14.07
2023-01-02T06:51:37.611Z,13.25
2023-01-02T06:52:40.503Z,12.70
2023-01-02T06:53:43.938Z,13.90
2023-01-02T06:54:46.907Z,13.45
2023-01-02T06:55:53.386Z,14.10
2023-01-02T06:56:56.153Z,13.35
2023-01-02T06:58:03.263Z,14.48
2023-01-02T07:00:14.240Z,12.77
2023-01-02T07:01:22.394Z,12.68
2023-01-02T07:02:25.436Z,13.05
2023-01-02T07:03:29.445Z,12.18
2023-01-02T07:04:32.630Z,12.30
2023-01-02T07:05:35.404Z,12.27
2023-01-02T07:06:38.327Z,12.52
2023-01-02T07:07:41.179Z,12.57
2023-01-02T07:08:45.060Z,12.37
2023-01-02T07:09:47.856Z,12.30
2023-01-02T07:10:52.999Z,13.15
2023-01-02T07:11:56.286Z,11.95
2023-01-02T07:12:59.253Z,12.50
2023-01-02T07:14:02.231Z,13.40
2023-01-02T07:15:06.712Z,12.10
2023-01-02T07:16:13.177Z,11.60
2023-01-02T07:17:16.118Z,12.93
2023-01-02T07:18:18.961Z,11.95
2023-01-02T07:19:21.797Z,12.75
2023-01-02T07:20:24.638Z,13.95
2023-01-02T07:21:27.617Z,13.48
2023-01-02T07:22:30.549Z,11.82
2023-01-02T07:23:33.581Z,12.77
2023-01-02T07:24:36.252Z,13.13
2023-01-02T07:25:44.212Z,12.07
2023-01-02T07:26:47.446Z,11.23
2023-01-02T07:27:50.400Z,12.13
2023-01-02T07:28:53.278Z,11.65
2023-01-02T07:29:56.758Z,11.88
2023-01-02T07:31:01.693Z,12.90
2023-01-02T07:32:04.908Z,13.95
2023-01-02T07:33:07.749Z,11.50
2023-01-02T07:34:10.839Z,13.77
2023-01-02T07:35:13.593Z,13.60
2023-01-02T07:36:19.446Z,13.38
2023-01-02T07:37:22.483Z,13.45
2023-01-02T07:38:26.421Z,13.18
2023-01-02T07:39:29.427Z,13.98
2023-01-02T07:40:35.244Z,12.50
2023-01-02T07:41:38.127Z,12.60
2023-01-02T07:42:42.298Z,13.38
2023-01-02T07:43:46.553Z,13.20
2023-01-02T07:44:49.551Z,11.20
2023-01-02T07:45:52.716Z,13.30
2023-01-02T07:46:55.570Z,11.85
2023-01-02T07:47:58.643Z,11.57
2023-01-02T07:49:05.328Z,11.73
2023-01-02T07:50:08.752Z,12.65
2023-01-02T07:51:22.672Z,10.60
2023-01-02T07:52:29.822Z,11.57
2023-01-02T07:53:33.389Z,11.32
2023-01-02T07:54:36.368Z,10.55
2023-01-02T07:55:39.255Z,11.55
2023-01-02T07:56:42.275Z,10.90
2023-01-02T07:57:48.316Z,11.63
2023-01-02T07:58:51.833Z,9.82
2023-01-02T07:59:54.739Z,9.50
2023-01-02T08:01:05.256Z,9.57
2023-01-02T08:02:11.526Z,9.18
2023-01-02T08:03:14.756Z,8.73
2023-01-02T08:04:17.637Z,8.80
2023-01-02T08:05:22.359Z,9.30
2023-01-02T08:06:25.585Z,9.73
2023-01-02T08:07:28.332Z,10.52
2023-01-02T08:08:31.634Z,10.80
2023-01-02T08:09:34.637Z,10.50
2023-01-02T08:10:38.075Z,11.00
2023-01-02T08:11:41.196Z,10.20
2023-01-02T08:12:44.108Z,9.80
2023-01-02T08:13:47.661Z,10.70
2023-01-02T08:14:50.533Z,9.15
2023-01-02T08:15:53.437Z,9.45
2023-01-02T08:16:56.351Z,8.88
2023-01-02T08:17:59.598Z,9.20
2023-01-02T08:19:02.516Z,9.43
2023-01-02T08:20:08.283Z,8.18
2023-01-02T08:21:12.107Z,9.00
2023-01-02T08:22:14.959Z,8.50
2023-01-02T08:23:17.757Z,8.77
2023-01-02T08:24:20.593Z,8.20
2023-01-02T08:25:23.384Z,9.25
2023-01-02T08:26:26.114Z,8.55
2023-01-02T08:27:29.438Z,8.93
2023-01-02T08:28:33.346Z,9.05
2023-01-02T08:29:36.303Z,9.32
2023-01-02T08:30:41.454Z,9.77
2023-01-02T08:31:44.414Z,10.25
2023-01-02T08:32:47.259Z,10.02
2023-01-02T08:33:50.184Z,10.40
2023-01-02T08:34:52.930Z,10.00
2023-01-02T08:35:56.803Z,9.30
2023-01-02T08:36:59.959Z,9.15
2023-01-02T08:38:03.059Z,10.23
2023-01-02T08:39:06.397Z,9.63
2023-01-02T08:40:09.810Z,8.95
2023-01-02T08:41:13.055Z,9.35
2023-01-02T08:42:15.985Z,9.25
2023-01-02T08:43:18.906Z,8.23
2023-01-02T08:44:21.793Z,8.02
2023-01-02T08:45:24.570Z,8.35
2023-01-02T08:46:28.798Z,7.87
2023-01-02T08:47:31.623Z,8.05
2023-01-02T08:48:36.024Z,6.95
2023-01-02T08:49:38.889Z,6.78
2023-01-02T08:50:41.811Z,6.60
2023-01-02T08:51:44.807Z,6.72
2023-01-02T08:52:47.715Z,6.62
2023-01-02T08:53:50.613Z,6.75
2023-01-02T08:54:53.398Z,5.30
2023-01-02T08:56:16.236Z,6.68
2023-01-02T08:57:19.266Z,7.05
2023-01-02T08:58:22.204Z,7.30
2023-01-02T08:59:26.303Z,7.65
2023-01-02T09:00:29.257Z,7.97
2023-01-02T09:01:33.398Z,8.05
2023-01-02T09:02:36.507Z,7.32
2023-01-02T09:03:39.590Z,7.97
2023-01-02T09:04:42.324Z,6.72
2023-01-02T09:05:45.172Z,7.62
2023-01-02T09:06:48.310Z,6.53
2023-01-02T09:07:51.304Z,5.75
2023-01-02T09:08:56.862Z,6.18
2023-01-02T09:09:59.917Z,6.37
2023-01-02T09:11:17.269Z,7.28
2023-01-02T09:12:20.341Z,7.47
2023-01-02T09:13:23.199Z,7.22
2023-01-02T09:14:26.036Z,6.72
2023-01-02T09:15:28.959Z,6.40
2023-01-02T09:16:32.767Z,6.68
2023-01-02T09:17:35.684Z,6.82
2023-01-02T09:18:40.059Z,6.68
2023-01-02T09:19:43.050Z,6.68
2023-01-02T09:20:46.038Z,6.22
2023-01-02T09:21:48.724Z,6.35
2023-01-02T09:22:51.566Z,8.70
2023-01-02T09:23:54.363Z,8.80
2023-01-02T09:24:57.188Z,7.90
2023-01-02T09:26:01.512Z,7.10
2023-01-02T09:27:04.412Z,7.10
2023-01-02T09:28:07.404Z,7.03
2023-01-02T09:29:12.420Z,7.18
2023-01-02T09:30:15.236Z,7.47
2023-01-02T09:31:19.527Z,7.62
2023-01-02T09:32:22.340Z,6.80
2023-01-02T09:33:25.172Z,6.35
2023-01-02T09:34:27.992Z,7.00
2023-01-02T09:35:30.743Z,6.80
2023-01-02T09:36:33.653Z,7.65
2023-01-02T09:37:36.358Z,6.87
2023-01-02T09:38:39.873Z,7.20
2023-01-02T09:39:42.622Z,6.43
2023-01-02T09:40:51.795Z,6.50
2023-01-02T09:41:59.225Z,6.68
2023-01-02T09:43:03.443Z,6.78
2023-01-02T09:44:37.663Z,6.18
2023-01-02T09:45:44.386Z,6.62
2023-01-02T09:46:56.190Z,6.03
2023-01-02T09:48:00.167Z,6.22
2023-01-02T09:49:04.055Z,7.10
2023-01-02T09:50:13.988Z,7.15
2023-01-02T09:51:16.970Z,6.97
2023-01-02T09:52:27.257Z,6.90
2023-01-02T09:53:31.985Z,6.78
2023-01-02T09:54:34.804Z,6.12
2023-01-02T09:56:04.703Z,6.45
2023-01-02T09:57:16.303Z,6.78
2023-01-02T09:59:07.261Z,7.50
2023-01-02T10:00:31.452Z,10.38
2023-01-02T10:01:34.198Z,8.50
2023-01-02T10:03:14.395Z,8.93
2023-01-02T10:04:32.585Z,6.72
2023-01-02T10:05:43.547Z,6.03
2023-01-02T10:07:01.272Z,6.90
2023-01-02T10:08:11.632Z,7.22
2023-01-02T10:09:53.143Z,6.93
2023-01-02T10:11:09.400Z,6.40
2023-01-02T10:12:21.270Z,6.57
2023-01-02T10:14:08.923Z,6.87
2023-01-02T10:15:04.937Z,7.32
2023-01-02T10:16:12.979Z,6.78
2023-01-02T10:17:17.610Z,9.98
2023-01-02T10:18:38.889Z,11.82
2023-01-02T10:20:01.245Z,11.32
2023-01-02T10:21:16.046Z,11.95
2023-01-02T10:22:31.699Z,10.13
2023-01-02T10:23:45.393Z,9.73
2023-01-02T10:25:01.731Z,6.25
2023-01-02T10:26:10.387Z,4.90
2023-01-02T10:27:23.180Z,5.18
2023-01-02T10:28:26.392Z,4.62
2023-01-02T10:29:30.654Z,5.00
2023-01-02T10:30:40.440Z,5.00
2023-01-02T10:31:55.595Z,4.65
2023-01-02T10:33:32.912Z,5.18
2023-01-02T10:34:54.950Z,4.20
2023-01-02T10:37:08.000Z,3.83
2023-01-02T10:38:17.094Z,4.60
2023-01-02T10:39:28.173Z,4.75
2023-01-02T10:40:32.608Z,5.82
2023-01-02T10:41:36.592Z,4.50
2023-01-02T10:42:40.690Z,5.05
2023-01-02T10:43:48.524Z,4.32
2023-01-02T10:44:52.096Z,4.47
2023-01-02T10:45:55.143Z,4.70
2023-01-02T10:46:59.898Z,4.85
2023-01-02T10:48:02.821Z,5.03
2023-01-02T10:49:08.894Z,4.60
2023-01-02T10:50:29.470Z,4.72
2023-01-02T10:51:33.395Z,4.75
2023-01-02T10:52:46.750Z,4.72
2023-01-02T10:54:08.840Z,5.03
2023-01-02T10:55:11.737Z,5.12
2023-01-02T10:56:20.662Z,5.20
2023-01-02T10:57:51.410Z,4.95
2023-01-02T10:58:55.768Z,5.62
2023-01-02T11:00:01.141Z,5.70
2023-01-02T11:01:19.410Z,5.68
2023-01-02T11:02:54.022Z,4.90
2023-01-02T11:03:57.822Z,5.12
2023-01-02T11:05:02.968Z,6.32
2023-01-02T11:06:35.284Z,6.12
2023-01-02T11:07:49.439Z,4.95
2023-01-02T11:08:58.796Z,5.55
2023-01-02T11:10:01.609Z,5.15
2023-01-02T11:11:25.439Z,5.03
2023-01-02T11:12:28.513Z,5.80
2023-01-02T11:13:48.942Z,5.43
2023-01-02T11:15:12.471Z,5.43
2023-01-02T11:16:17.375Z,5.45
2023-01-02T11:17:22.775Z,5.45
2023-01-02T11:18:32.372Z,5.93
2023-01-02T11:19:44.943Z,5.75
2023-01-02T11:20:51.438Z,5.20
2023-01-02T11:21:54.455Z,5.30
2023-01-02T11:23:01.580Z,4.87
2023-01-02T11:24:16.432Z,5.68
2023-01-02T11:25:29.257Z,5.68
2023-01-02T11:26:38.770Z,5.80
2023-01-02T11:27:44.583Z,5.95
2023-01-02T11:28:50.999Z,6.22
2023-01-02T11:29:53.912Z,7.40
2023-01-02T11:31:09.632Z,6.85
2023-01-02T11:32:23.267Z,6.45
2023-01-02T11:33:28.930Z,6.45
2023-01-02T11:34:40.948Z,6.97
2023-01-02T11:35:50.687Z,6.75
2023-01-02T11:37:11.589Z,6.90
2023-01-02T11:38:29.486Z,6.73
2023-01-02T11:39:34.834Z,6.43
2023-01-02T11:40:37.577Z,6.90
2023-01-02T11:42:13.606Z,7.25
2023-01-02T11:43:37.224Z,6.53
2023-01-02T11:45:10.142Z,6.43
2023-01-02T11:46:23.598Z,6.47
2023-01-02T11:47:47.882Z,5.72
2023-01-02T11:48:54.333Z,6.80
2023-01-02T11:49:58.436Z,6.15
2023-01-02T11:51:01.101Z,6.80
2023-01-02T11:52:06.903Z,6.53
2023-01-02T11:53:12.560Z,6.60
2023-01-02T11:54:24.662Z,7.07
2023-01-02T11:55:42.056Z,6.50
2023-01-02T11:56:46.254Z,6.95
2023-01-02T11:58:23.626Z,6.35
2023-01-02T11:59:42.876Z,5.37
2023-01-02T12:00:50.151Z,6.20
2023-01-02T12:02:02.173Z,6.05
2023-01-02T12:03:18.881Z,6.12
2023-01-02T12:04:23.530Z,6.15
2023-01-02T12:05:39.225Z,6.78
2023-01-02T12:07:14.335Z,6.07
2023-01-02T12:08:36.349Z,6.37
2023-01-02T12:09:54.930Z,6.05
2023-01-02T12:11:00.440Z,5.80
2023-01-02T12:12:32.056Z,5.70
2023-01-02T12:14:04.170Z,6.25
2023-01-02T12:15:48.707Z,6.40
2023-01-02T12:16:59.158Z,6.35
2023-01-02T12:18:24.027Z,5.50
2023-01-02T12:19:38.748Z,5.57
2023-01-02T12:21:12.192Z,6.18
2023-01-02T12:22:43.021Z,6.40
2023-01-02T12:23:45.904Z,5.47
2023-01-02T12:25:36.478Z,5.70
2023-01-02T12:26:39.713Z,5.68
2023-01-02T12:28:01.882Z,5.65
2023-01-02T12:29:49.415Z,5.75
2023-01-02T12:31:29.418Z,5.78
2023-01-02T12:32:59.397Z,5.68
2023-01-02T12:34:07.852Z,5.65
2023-01-02T12:35:13.756Z,5.80
2023-01-02T12:36:25.975Z,6.15
2023-01-02T12:37:52.278Z,6.12
2023-01-02T12:39:21.140Z,6.15
2023-01-02T12:40:34.977Z,5.43
2023-01-02T12:42:02.570Z,5.80
2023-01-02T12:43:23.943Z,6.03
2023-01-02T12:44:47.080Z,5.85
2023-01-02T12:45:52.716Z,5.57
2023-01-02T12:47:13.885Z,4.75
2023-01-02T12:48:52.424Z,5.05
2023-01-02T12:50:33.790Z,5.70
2023-01-02T12:51:59.596Z,5.55
2023-01-02T12:53:14.497Z,5.20
2023-01-02T12:54:39.180Z,5.32
2023-01-02T12:56:11.291Z,5.80
2023-01-02T12:57:28.681Z,5.70
2023-01-02T12:58:51.991Z,6.40
2023-01-02T13:00:13.178Z,5.25
2023-01-02T13:01:29.577Z,5.40
2023-01-02T13:02:57.519Z,5.60
2023-01-02T13:04:13.994Z,6.47
2023-01-02T13:05:23.438Z,6.25
2023-01-02T13:06:48.140Z,6.05
2023-01-02T13:08:00.533Z,6.00
2023-01-02T13:09:26.468Z,5.62
2023-01-02T13:10:30.582Z,5.82
2023-01-02T13:11:42.869Z,6.20
2023-01-02T13:12:47.472Z,5.53
2023-01-02T13:13:51.135Z,6.43
2023-01-02T13:14:58.723Z,6.00
2023-01-02T13:16:20.689Z,6.45
2023-01-02T13:17:53.537Z,5.93
2023-01-02T13:19:12.020Z,5.30
2023-01-02T13:20:23.915Z,5.78
2023-01-02T13:21:58.401Z,6.20
2023-01-02T13:23:10.197Z,5.78
2023-01-02T13:24:22.269Z,6.18
2023-01-02T13:25:26.026Z,6.22
2023-01-02T13:26:32.041Z,6.00
2023-01-02T13:27:34.989Z,5.75
2023-01-02T13:29:06.980Z,6.62
2023-01-02T13:30:35.506Z,6.60
2023-01-02T13:31:50.164Z,6.03
2023-01-02T13:32:53.225Z,6.22
2023-01-02T13:33:56.751Z,6.62
2023-01-02T13:35:03.174Z,7.00
2023-01-02T13:36:24.250Z,7.32
2023-01-02T13:37:29.576Z,7.00
2023-01-02T13:38:36.588Z,6.97
2023-01-02T13:39:39.473Z,7.40
2023-01-02T13:40:42.791Z,8.23
2023-01-02T13:42:17.163Z,7.70
2023-01-02T13:43:28.150Z,7.40
2023-01-02T13:44:36.920Z,7.80
2023-01-02T13:45:47.909Z,6.95
2023-01-02T13:47:03.072Z,7.85
2023-01-02T13:48:20.960Z,8.15
2023-01-02T13:49:23.896Z,8.65
2023-01-02T13:50:38.492Z,8.20
2023-01-02T13:51:41.357Z,8.13
2023-01-02T13:52:57.052Z,7.78
2023-01-02T13:54:01.885Z,7.95
2023-01-02T13:55:21.241Z,7.80
2023-01-02T13:56:27.247Z,7.95
2023-01-02T13:57:33.695Z,8.75
2023-01-02T13:58:56.174Z,8.60
2023-01-02T13:59:58.965Z,8.30
2023-01-02T14:01:21.885Z,8.00
2023-01-02T14:02:24.916Z,7.82
2023-01-02T14:03:28.793Z,8.05
2023-01-02T14:04:34.932Z,7.85
2023-01-02T14:06:03.977Z,8.80
2023-01-02T14:07:25.091Z,7.93
2023-01-02T14:09:01.012Z,8.50
2023-01-02T14:10:10.018Z,8.77
2023-01-02T14:11:27.815Z,8.25
2023-01-02T14:12:30.616Z,8.07
2023-01-02T14:13:44.822Z,8.45
2023-01-02T14:14:52.842Z,10.10
2023-01-02T14:16:34.614Z,11.90
2023-01-02T14:17:47.323Z,10.32
2023-01-02T14:19:14.174Z,10.35
2023-01-02T14:20:32.685Z,10.63
2023-01-02T14:21:40.875Z,10.32
2023-01-02T14:22:48.242Z,10.27
2023-01-02T14:24:18.064Z,10.98
2023-01-02T14:25:14.408Z,11.73
2023-01-02T14:26:25.529Z,10.65
2023-01-02T14:27:32.041Z,10.55
2023-01-02T14:28:39.749Z,10.57
2023-01-02T14:29:59.069Z,10.77
2023-01-02T14:31:16.024Z,11.88
2023-01-02T14:32:29.983Z,10.98
2023-01-02T14:33:36.713Z,11.23
2023-01-02T14:34:48.199Z,10.95
2023-01-02T14:35:54.308Z,11.32
2023-01-02T14:37:00.668Z,11.07
2023-01-02T14:38:28.805Z,11.15
2023-01-02T14:39:34.110Z,12.05
2023-01-02T14:40:40.832Z,10.20
2023-01-02T14:42:11.398Z,10.13
2023-01-02T14:43:31.237Z,9.13
2023-01-02T14:44:48.678Z,10.05
2023-01-02T14:45:55.091Z,10.57
2023-01-02T14:46:58.693Z,10.43
2023-01-02T14:48:09.366Z,9.93
2023-01-02T14:49:25.666Z,10.13
2023-01-02T14:50:33.863Z,10.20
2023-01-02T14:51:46.788Z,10.50
2023-01-02T14:52:59.233Z,9.35
2023-01-02T14:54:22.917Z,9.88
2023-01-02T14:55:29.411Z,9.50
2023-01-02T14:56:36.843Z,9.98
2023-01-02T14:57:42.250Z,9.57
2023-01-02T14:58:48.474Z,10.63
2023-01-02T14:59:53.804Z,9.30
2023-01-02T15:01:04.241Z,8.10
2023-01-02T15:02:14.497Z,8.75
2023-01-02T15:03:35.234Z,8.30
2023-01-02T15:04:47.692Z,7.53
2023-01-02T15:06:13.785Z,8.32
2023-01-02T15:07:19.835Z,8.63
2023-01-02T15:08:34.499Z,8.98